Time;durP1;ratioP1;P1;durP2;ratioP2;P2;SDS_P1;SDS_P2;PMS_P1;PMS_P2;Temp;Humidity;BMP_temperature;BMP_pressure;BME280_temperature;BME280_humidity;BME280_pressure;Samples;Min_cycle;Max_cycle;Signal;HPM_P1;HPM_P2
2020/12/10 00:01:41;;;;;;;96.65;24.77;;;0.50;99.90;;;;;;4867087;28;20152;-82
2020/12/10 00:04:04;;;;;;;112.70;27.55;;;0.50;99.90;;;;;;4863349;28;20155;-82
2020/12/10 00:06:27;;;;;;;122.38;27.63;;;0.60;99.90;;;;;;4861792;28;20090;-82
2020/12/10 00:08:50;;;;;;;106.43;26.70;;;0.50;99.90;;;;;;4853280;28;20088;-82
2020/12/10 00:11:14;;;;;;;117.35;28.30;;;0.50;99.90;;;;;;4856519;28;20089;-82
2020/12/10 00:13:38;;;;;;;120.03;31.55;;;0.50;99.90;;;;;;4867102;28;21578;-83
2020/12/10 00:16:01;;;;;;;125.57;28.73;;;0.40;99.90;;;;;;4861731;28;20093;-81
2020/12/10 00:18:24;;;;;;;136.07;32.15;;;0.40;99.90;;;;;;4863541;28;20143;-83
2020/12/10 00:20:47;;;;;;;113.35;27.65;;;0.40;99.90;;;;;;4863348;28;20101;-82
2020/12/10 00:23:10;;;;;;;105.78;27.67;;;0.40;99.90;;;;;;4860633;28;20505;-82
2020/12/10 00:25:33;;;;;;;110.05;29.05;;;0.40;99.90;;;;;;4858689;28;20621;-82
2020/12/10 00:27:57;;;;;;;117.38;27.95;;;0.30;99.90;;;;;;4861013;28;20099;-82
2020/12/10 00:30:22;;;;;;;113.38;28.23;;;0.30;99.90;;;;;;4862182;28;20280;-82
2020/12/10 00:32:46;;;;;;;115.63;26.55;;;0.30;99.90;;;;;;4859511;28;20096;-82
2020/12/10 00:35:10;;;;;;;126.28;29.98;;;0.30;99.90;;;;;;4855812;28;20094;-81
2020/12/10 00:37:37;;;;;;;120.97;28.50;;;0.30;99.90;;;;;;4862545;28;20095;-82
2020/12/10 00:40:00;;;;;;;111.22;27.10;;;0.30;99.90;;;;;;4860736;28;20140;-81
2020/12/10 00:42:24;;;;;;;123.75;28.70;;;0.30;99.90;;;;;;4858118;28;20093;-82
2020/12/10 00:44:47;;;;;;;116.68;27.65;;;0.20;99.90;;;;;;4860119;28;20539;-83
2020/12/10 00:47:11;;;;;;;109.70;27.88;;;0.20;99.90;;;;;;4858245;28;20138;-82
2020/12/10 00:49:36;;;;;;;124.53;28.77;;;0.20;99.90;;;;;;4861625;28;20104;-82
2020/12/10 00:52:01;;;;;;;110.28;26.48;;;0.10;99.90;;;;;;4863143;28;20099;-80
2020/12/10 00:54:26;;;;;;;136.93;33.08;;;0.10;99.90;;;;;;4865863;28;20149;-83
2020/12/10 00:56:49;;;;;;;128.98;30.45;;;0.10;99.90;;;;;;4860785;28;20097;-83
2020/12/10 00:59:12;;;;;;;130.85;29.95;;;0.00;99.90;;;;;;4855866;28;20096;-82
2020/12/10 01:01:36;;;;;;;127.93;29.85;;;0.10;99.90;;;;;;4865469;28;20097;-81
2020/12/10 01:03:59;;;;;;;108.18;28.23;;;0.00;99.90;;;;;;4863148;28;20907;-81
2020/12/10 01:06:22;;;;;;;113.05;30.38;;;0.00;99.90;;;;;;4852671;28;20101;-83
2020/12/10 01:08:45;;;;;;;125.38;28.73;;;0.00;99.90;;;;;;4859318;28;20180;-80
2020/12/10 01:11:08;;;;;;;106.82;28.02;;;0.00;99.90;;;;;;4858210;28;20146;-81
2020/12/10 01:13:32;;;;;;;131.50;29.90;;;0.00;99.90;;;;;;4855548;28;20144;-81
2020/12/10 01:15:55;;;;;;;111.93;25.60;;;-0.10;99.90;;;;;;4859487;28;20089;-82
2020/12/10 01:18:20;;;;;;;106.68;26.55;;;-0.20;99.90;;;;;;4859547;28;20629;-81
2020/12/10 01:20:45;;;;;;;108.32;25.90;;;-0.10;99.90;;;;;;4854161;28;20177;-82
2020/12/10 01:23:08;;;;;;;109.93;26.95;;;-0.10;99.90;;;;;;4861902;28;20109;-82
2020/12/10 01:25:31;;;;;;;102.50;27.70;;;0.00;99.90;;;;;;4853326;28;20113;-83
2020/12/10 01:27:54;;;;;;;107.78;27.42;;;-0.10;99.90;;;;;;4855635;28;20183;-81
2020/12/10 01:30:17;;;;;;;117.82;29.52;;;-0.10;99.90;;;;;;4854345;28;20103;-82
2020/12/10 01:32:40;;;;;;;116.05;25.10;;;0.00;99.90;;;;;;4855288;28;20106;-82
2020/12/10 01:35:05;;;;;;;113.68;28.33;;;-0.10;99.90;;;;;;4861861;28;20100;-81
2020/12/10 01:37:29;;;;;;;117.28;27.83;;;;;;;;;;4854244;28;20100;-81
2020/12/10 01:39:52;;;;;;;121.25;27.50;;;-0.10;99.90;;;;;;4863123;28;20114;-82
2020/12/10 01:42:16;;;;;;;119.13;26.58;;;0.00;99.90;;;;;;4862749;28;20111;-82
2020/12/10 01:44:39;;;;;;;126.93;31.35;;;0.00;99.90;;;;;;4853025;28;20093;-82
2020/12/10 01:47:02;;;;;;;102.70;25.67;;;0.00;99.90;;;;;;4866420;28;20088;-82
2020/12/10 01:49:30;;;;;;;118.35;29.35;;;0.00;99.90;;;;;;4860280;28;20164;-82
2020/12/10 01:51:56;;;;;;;117.38;27.88;;;0.00;99.90;;;;;;4859779;28;20123;-82
2020/12/10 01:54:20;;;;;;;137.75;32.00;;;0.00;99.90;;;;;;4852432;28;20533;-80
2020/12/10 01:56:43;;;;;;;131.60;28.63;;;0.00;99.90;;;;;;4856449;28;21606;-82
2020/12/10 01:59:07;;;;;;;136.63;30.25;;;0.10;99.90;;;;;;4858750;28;20111;-81
2020/12/10 02:01:30;;;;;;;142.20;31.70;;;0.00;99.90;;;;;;4854914;28;20172;-82
2020/12/10 02:03:55;;;;;;;128.10;30.73;;;0.10;99.90;;;;;;4867520;28;20539;-82
2020/12/10 02:06:19;;;;;;;112.00;28.30;;;0.10;99.90;;;;;;4854250;28;20589;-82
2020/12/10 02:08:43;;;;;;;123.22;28.13;;;0.10;99.90;;;;;;4859190;28;21814;-81
2020/12/10 02:11:09;;;;;;;134.52;32.85;;;0.10;99.90;;;;;;4845995;28;20184;-81
2020/12/10 02:13:38;;;;;;;130.60;28.83;;;0.20;99.90;;;;;;4861631;28;20576;-82
2020/12/10 02:16:02;;;;;;;135.02;32.67;;;0.10;99.90;;;;;;4865181;28;20097;-82
2020/12/10 02:18:27;;;;;;;136.93;30.20;;;0.10;99.90;;;;;;4859853;28;20111;-81
2020/12/10 02:20:53;;;;;;;134.40;28.63;;;0.10;99.90;;;;;;4859587;28;20909;-82
2020/12/10 02:23:17;;;;;;;127.80;29.27;;;0.10;99.90;;;;;;4844541;28;20106;-82
2020/12/10 02:25:40;;;;;;;132.30;30.35;;;0.10;99.90;;;;;;4861807;28;20112;-83
2020/12/10 02:28:05;;;;;;;135.95;31.60;;;0.10;99.90;;;;;;4861354;28;20515;-82
2020/12/10 02:30:29;;;;;;;145.03;31.97;;;0.10;99.90;;;;;;4854351;28;20096;-82
2020/12/10 02:33:00;;;;;;;143.45;31.70;;;0.10;99.90;;;;;;4864596;28;20089;-83
2020/12/10 02:35:26;;;;;;;133.60;29.65;;;0.20;99.90;;;;;;4860004;28;20100;-82
2020/12/10 02:37:50;;;;;;;127.78;29.73;;;0.10;99.90;;;;;;4863262;28;20103;-82
2020/12/10 02:40:15;;;;;;;160.65;37.80;;;0.10;99.90;;;;;;4857139;28;20094;-83
2020/12/10 02:42:38;;;;;;;126.88;28.95;;;0.10;99.90;;;;;;4864337;28;20089;-82
2020/12/10 02:45:01;;;;;;;136.10;28.27;;;0.10;99.90;;;;;;4865770;28;20115;-83
2020/12/10 02:47:26;;;;;;;132.70;29.58;;;0.10;99.90;;;;;;4869348;28;20103;-83
2020/12/10 02:49:50;;;;;;;137.07;29.75;;;0.10;99.90;;;;;;4858918;28;20099;-82
2020/12/10 02:52:19;;;;;;;146.23;33.05;;;0.20;99.90;;;;;;4860767;28;20484;-83
2020/12/10 02:54:42;;;;;;;142.52;34.25;;;0.10;99.90;;;;;;4858065;28;20105;-82
2020/12/10 02:57:08;;;;;;;158.18;34.75;;;0.20;99.90;;;;;;4867157;28;20098;-82
2020/12/10 02:59:31;;;;;;;139.98;33.53;;;0.20;99.90;;;;;;4867049;28;20084;-82
2020/12/10 03:01:54;;;;;;;172.60;35.95;;;0.20;99.90;;;;;;4861531;28;20092;-82
2020/12/10 03:04:17;;;;;;;142.88;33.22;;;0.10;99.90;;;;;;4859085;28;20105;-82
2020/12/10 03:06:40;;;;;;;143.43;32.35;;;0.10;99.90;;;;;;4860146;28;20112;-81
2020/12/10 03:09:03;;;;;;;155.18;34.28;;;0.20;99.90;;;;;;4851306;28;20088;-82
2020/12/10 03:11:26;;;;;;;147.18;32.67;;;0.20;99.90;;;;;;4869229;28;20088;-82
2020/12/10 03:13:50;;;;;;;160.98;31.95;;;0.10;99.90;;;;;;4856652;28;20103;-82
2020/12/10 03:16:16;;;;;;;172.90;32.83;;;0.20;99.90;;;;;;4861330;28;20101;-81
2020/12/10 03:18:39;;;;;;;171.25;32.17;;;0.10;99.90;;;;;;4852171;28;20508;-82
2020/12/10 03:21:04;;;;;;;182.63;38.15;;;0.10;99.90;;;;;;4863277;28;20451;-82
2020/12/10 03:23:28;;;;;;;179.40;35.45;;;0.00;99.90;;;;;;4857855;28;20097;-81
2020/12/10 03:25:51;;;;;;;167.50;32.75;;;0.00;99.90;;;;;;4854930;28;20099;-82
2020/12/10 03:28:14;;;;;;;165.23;32.97;;;0.00;99.90;;;;;;4864682;28;20201;-82
2020/12/10 03:30:40;;;;;;;192.25;35.33;;;0.00;99.90;;;;;;4864482;28;20187;-83
2020/12/10 03:33:04;;;;;;;169.68;33.00;;;-0.20;99.90;;;;;;4855919;28;20116;-81
2020/12/10 03:35:29;;;;;;;177.60;37.22;;;0.00;99.90;;;;;;4858826;28;20563;-80
2020/12/10 03:37:53;;;;;;;179.50;36.17;;;-0.10;99.90;;;;;;4864679;28;21269;-82
2020/12/10 03:40:16;;;;;;;173.73;37.65;;;0.00;99.90;;;;;;4855215;28;20200;-82
2020/12/10 03:42:40;;;;;;;191.30;35.45;;;-0.10;99.90;;;;;;4859195;28;20097;-81
2020/12/10 03:45:06;;;;;;;187.93;39.10;;;-0.10;99.90;;;;;;4863851;28;20088;-81
2020/12/10 03:47:30;;;;;;;168.48;32.35;;;-0.10;99.90;;;;;;4843721;28;20210;-81
2020/12/10 03:49:53;;;;;;;179.90;33.97;;;-0.10;99.90;;;;;;4860548;28;20091;-82
2020/12/10 03:52:17;;;;;;;169.88;33.67;;;-0.10;99.90;;;;;;4861482;28;20097;-82
2020/12/10 03:54:41;;;;;;;196.50;39.17;;;0.00;99.90;;;;;;4858891;28;20099;-82
2020/12/10 03:57:05;;;;;;;151.45;31.17;;;-0.10;99.90;;;;;;4861998;28;20101;-81
2020/12/10 03:59:27;;;;;;;174.18;35.35;;;0.00;99.90;;;;;;4861054;28;20205;-82
2020/12/10 04:01:50;;;;;;;168.90;34.85;;;-0.10;99.90;;;;;;4861180;28;20105;-81
2020/12/10 04:04:15;;;;;;;188.02;37.65;;;-0.10;99.90;;;;;;4862015;28;20145;-83
2020/12/10 04:06:43;;;;;;;171.90;33.67;;;-0.10;99.90;;;;;;4859527;28;20093;-82
2020/12/10 04:09:07;;;;;;;162.75;31.65;;;-0.10;99.90;;;;;;4865795;28;20548;-82
2020/12/10 04:11:31;;;;;;;201.85;36.75;;;0.00;99.90;;;;;;4863409;28;20096;-82
2020/12/10 04:14:00;;;;;;;162.85;33.63;;;-0.10;99.90;;;;;;4863051;28;20104;-82
2020/12/10 04:16:24;;;;;;;178.75;33.05;;;-0.10;99.90;;;;;;4857030;28;20140;-81
2020/12/10 04:18:49;;;;;;;194.40;36.67;;;-0.10;99.90;;;;;;4865801;28;20180;-82
2020/12/10 04:21:15;;;;;;;197.13;36.05;;;;;;;;;;4861323;28;20151;-81
2020/12/10 04:23:39;;;;;;;206.23;35.33;;;-0.10;99.90;;;;;;4865346;28;20138;-82
2020/12/10 04:26:03;;;;;;;139.20;25.15;;;-0.10;99.90;;;;;;4860479;28;20454;-82
2020/12/10 04:28:26;;;;;;;183.85;33.15;;;0.00;99.90;;;;;;4861531;28;20104;-82
2020/12/10 04:30:49;;;;;;;181.98;33.90;;;0.00;99.90;;;;;;4860392;28;20094;-81
2020/12/10 04:33:14;;;;;;;214.05;37.45;;;-0.10;99.90;;;;;;4862890;28;20578;-82
2020/12/10 04:35:37;;;;;;;203.73;39.85;;;-0.10;99.90;;;;;;4857886;28;20093;-82
2020/12/10 04:38:01;;;;;;;183.98;33.40;;;-0.10;99.90;;;;;;4854560;28;20152;-81
2020/12/10 04:40:24;;;;;;;223.63;37.63;;;-0.10;99.90;;;;;;4860014;28;20155;-81
2020/12/10 04:42:53;;;;;;;218.15;35.25;;;-0.10;99.90;;;;;;4861963;28;20088;-82
2020/12/10 04:45:16;;;;;;;204.15;34.13;;;-0.10;99.90;;;;;;4861572;28;20097;-82
2020/12/10 04:47:41;;;;;;;194.93;37.20;;;-0.10;99.90;;;;;;4847567;28;20098;-83
2020/12/10 04:50:14;;;;;;;198.50;35.55;;;-0.10;99.90;;;;;;4862744;28;20616;-81
2020/12/10 04:52:38;;;;;;;211.90;37.65;;;-0.10;99.90;;;;;;4866318;28;20098;-82
2020/12/10 04:55:03;;;;;;;199.65;37.53;;;-0.10;99.90;;;;;;4857194;28;21019;-82
2020/12/10 04:57:29;;;;;;;;;;;-0.10;99.90;;;;;;4863684;28;20097;-82
2020/12/10 04:59:52;;;;;;;214.63;37.53;;;-0.20;99.90;;;;;;4854136;28;20457;-84
2020/12/10 05:02:19;;;;;;;225.32;42.47;;;-0.10;99.90;;;;;;4862119;28;20159;-82
2020/12/10 05:04:42;;;;;;;231.75;49.08;;;-0.10;99.90;;;;;;4870779;28;20535;-82
2020/12/10 05:07:06;;;;;;;193.90;40.40;;;;;;;;;;4859051;28;20090;-82
2020/12/10 05:09:30;;;;;;;205.00;35.90;;;-0.20;99.90;;;;;;4855002;28;20094;-82
2020/12/10 05:11:56;;;;;;;194.98;37.25;;;-0.10;99.90;;;;;;4862808;28;20185;-81
2020/12/10 05:14:20;;;;;;;194.27;36.53;;;-0.10;99.90;;;;;;4864132;28;20108;-82
2020/12/10 05:16:43;;;;;;;189.93;38.72;;;-0.20;99.90;;;;;;4863009;28;20094;-83
2020/12/10 05:19:20;;;;;;;200.07;35.97;;;-0.20;99.90;;;;;;4861086;28;20134;-82
2020/12/10 05:21:43;;;;;;;210.40;40.15;;;-0.20;99.90;;;;;;4858735;28;20097;-83
2020/12/10 05:24:20;;;;;;;175.15;32.92;;;-0.10;99.90;;;;;;4859827;28;20160;-82
2020/12/10 05:26:45;;;;;;;165.77;32.88;;;-0.10;99.90;;;;;;4853998;28;20096;-82
2020/12/10 05:29:09;;;;;;;198.75;35.28;;;-0.10;99.90;;;;;;4857147;28;20142;-82
2020/12/10 05:31:37;;;;;;;204.95;42.35;;;-0.20;99.90;;;;;;4856373;28;20097;-82
2020/12/10 05:34:02;;;;;;;185.50;36.25;;;-0.20;99.90;;;;;;4858816;28;20181;-82
2020/12/10 05:36:26;;;;;;;205.63;36.70;;;-0.20;99.90;;;;;;4864331;28;20107;-83
2020/12/10 05:39:03;;;;;;;222.77;38.95;;;-0.10;99.90;;;;;;4860009;28;20957;-82
2020/12/10 05:41:27;;;;;;;201.07;35.80;;;-0.10;99.90;;;;;;4858619;28;20089;-81
2020/12/10 05:43:50;;;;;;;177.60;33.20;;;-0.20;99.90;;;;;;4855093;28;20124;-82
2020/12/10 05:46:22;;;;;;;199.98;34.60;;;-0.10;99.90;;;;;;4864135;28;20088;-82
2020/12/10 05:48:46;;;;;;;210.38;39.33;;;-0.10;99.90;;;;;;4855643;28;20196;-83
2020/12/10 05:51:18;;;;;;;178.25;32.17;;;-0.20;99.90;;;;;;4856045;28;20096;-81
2020/12/10 05:53:42;;;;;;;182.52;33.33;;;-0.10;99.90;;;;;;4856360;28;21827;-82
2020/12/10 05:56:06;;;;;;;199.00;35.10;;;-0.20;99.90;;;;;;4861069;28;22113;-82
2020/12/10 05:58:31;;;;;;;212.18;38.75;;;-0.30;99.90;;;;;;4864145;28;20112;-83
2020/12/10 06:00:56;;;;;;;191.57;36.08;;;-0.30;99.90;;;;;;4855338;28;20092;-82
2020/12/10 06:03:22;;;;;;;197.03;35.93;;;-0.20;99.90;;;;;;4863055;28;20112;-82
2020/12/10 06:05:53;;;;;;;161.32;29.95;;;-0.20;99.90;;;;;;4860098;28;20451;-83
2020/12/10 06:08:15;;;;;;;167.02;31.90;;;-0.20;99.90;;;;;;4860568;28;20095;-82
2020/12/10 06:10:40;;;;;;;189.30;35.28;;;-0.20;99.90;;;;;;4868015;28;20099;-82
2020/12/10 06:13:05;;;;;;;182.30;33.95;;;-0.20;99.90;;;;;;4862595;28;20089;-83
2020/12/10 06:15:33;;;;;;;198.02;37.75;;;-0.20;99.90;;;;;;4864957;28;20091;-82
2020/12/10 06:18:04;;;;;;;212.32;38.40;;;-0.20;99.90;;;;;;4863901;28;21062;-82
2020/12/10 06:20:37;;;;;;;156.15;30.85;;;-0.20;99.90;;;;;;4858795;28;20094;-81
2020/12/10 06:23:33;;;;;;;197.48;33.25;;;-0.20;99.90;;;;;;4858925;28;20108;-81
2020/12/10 06:25:57;;;;;;;199.32;35.63;;;-0.20;99.90;;;;;;4842891;28;20122;-82
2020/12/10 06:28:22;;;;;;;173.63;33.42;;;-0.20;99.90;;;;;;4860510;28;20096;-82
2020/12/10 06:31:03;;;;;;;171.07;33.53;;;-0.20;99.90;;;;;;4861292;28;20085;-82
2020/12/10 06:33:36;;;;;;;164.50;32.60;;;-0.20;99.90;;;;;;4861102;28;20115;-82
2020/12/10 06:36:18;;;;;;;170.38;29.73;;;-0.20;99.90;;;;;;4859433;28;20092;-82
2020/12/10 06:38:43;;;;;;;150.60;29.00;;;-0.20;99.90;;;;;;4854999;28;20105;-82
2020/12/10 06:41:07;;;;;;;139.00;27.13;;;-0.20;99.90;;;;;;4868021;28;20552;-82
2020/12/10 06:43:37;;;;;;;159.52;29.80;;;-0.10;99.90;;;;;;4858773;28;20104;-82
2020/12/10 06:46:00;;;;;;;168.85;32.40;;;-0.10;99.90;;;;;;4858056;28;20219;-81
2020/12/10 06:48:39;;;;;;;164.38;31.42;;;-0.10;99.90;;;;;;4857543;28;20538;-82
2020/12/10 06:51:13;;;;;;;156.65;29.65;;;-0.20;99.90;;;;;;4852708;28;20176;-82
2020/12/10 06:53:36;;;;;;;157.75;29.90;;;-0.10;99.90;;;;;;4860647;28;20127;-82
2020/12/10 06:56:02;;;;;;;155.18;33.03;;;-0.20;99.90;;;;;;4861087;28;20088;-83
2020/12/10 06:58:56;;;;;;;143.68;28.08;;;-0.20;99.90;;;;;;4865022;28;20089;-82
2020/12/10 07:01:32;;;;;;;144.77;25.65;;;-0.20;99.90;;;;;;4856062;28;20188;-82
2020/12/10 07:04:32;;;;;;;152.57;29.25;;;-0.20;99.90;;;;;;4876944;28;20098;-82
2020/12/10 07:07:19;;;;;;;119.63;27.83;;;-0.30;99.90;;;;;;4852728;28;20102;-82
2020/12/10 07:09:55;;;;;;;135.50;29.70;;;-0.30;99.90;;;;;;4860307;28;20105;-81
2020/12/10 07:12:23;;;;;;;173.48;33.20;;;-0.30;99.90;;;;;;4857994;28;20215;-81
2020/12/10 07:14:48;;;;;;;165.98;29.42;;;-0.30;99.90;;;;;;4859462;28;20108;-82
2020/12/10 07:17:11;;;;;;;152.00;29.73;;;-0.30;99.90;;;;;;4860113;28;20155;-82
2020/12/10 07:19:34;;;;;;;156.60;28.40;;;-0.30;99.90;;;;;;4860426;28;21604;-84
2020/12/10 07:21:57;;;;;;;130.60;27.05;;;-0.30;99.90;;;;;;4862018;28;20135;-80
2020/12/10 07:24:21;;;;;;;148.10;28.92;;;-0.30;99.90;;;;;;4861771;28;21073;-82
2020/12/10 07:26:54;;;;;;;176.27;29.30;;;-0.30;99.90;;;;;;4851049;28;20191;-82
2020/12/10 07:29:17;;;;;;;129.20;28.45;;;-0.30;99.90;;;;;;4854818;28;20101;-82
2020/12/10 07:31:42;;;;;;;157.05;30.10;;;-0.30;99.90;;;;;;4862170;28;20101;-82
2020/12/10 07:34:05;;;;;;;154.27;31.05;;;-0.30;99.90;;;;;;4846871;28;20105;-83
2020/12/10 07:36:31;;;;;;;156.35;28.50;;;-0.30;99.90;;;;;;4861186;28;20501;-81
2020/12/10 07:38:54;;;;;;;153.52;30.17;;;-0.30;99.90;;;;;;4861008;28;20104;-82
2020/12/10 07:41:20;;;;;;;151.80;31.80;;;-0.30;99.90;;;;;;4862007;28;20175;-82
2020/12/10 07:43:48;;;;;;;157.82;28.23;;;-0.30;99.90;;;;;;4859526;28;20093;-81
2020/12/10 07:46:11;;;;;;;161.57;28.35;;;-0.30;99.90;;;;;;4861535;28;20094;-82
2020/12/10 07:48:37;;;;;;;140.02;26.33;;;-0.30;99.90;;;;;;4857258;28;20095;-82
2020/12/10 07:51:06;;;;;;;148.75;29.98;;;-0.30;99.90;;;;;;4851756;28;20110;-83
2020/12/10 07:53:29;;;;;;;144.40;27.98;;;-0.30;99.90;;;;;;4860783;28;20141;-81
2020/12/10 07:55:54;;;;;;;134.35;25.95;;;-0.30;99.90;;;;;;4861084;28;20103;-81
2020/12/10 07:58:33;;;;;;;115.53;26.33;;;-0.30;99.90;;;;;;4850580;28;20099;-81
2020/12/10 08:01:01;;;;;;;123.10;26.33;;;-0.30;99.90;;;;;;4850887;28;20107;-82
2020/12/10 08:03:28;;;;;;;107.75;24.58;;;-0.30;99.90;;;;;;4856674;28;20554;-82
2020/12/10 08:06:04;;;;;;;111.47;24.88;;;-0.30;99.90;;;;;;4858336;28;20098;-81
2020/12/10 08:08:36;;;;;;;84.18;19.25;;;-0.40;99.90;;;;;;4863546;28;20100;-82
2020/12/10 08:11:08;;;;;;;102.00;23.38;;;-0.30;99.90;;;;;;4858253;28;20096;-81
2020/12/10 08:13:32;;;;;;;103.60;22.55;;;-0.40;99.90;;;;;;4855034;28;20093;-81
2020/12/10 08:16:07;;;;;;;136.43;26.02;;;-0.40;99.90;;;;;;4862662;28;20103;-81
2020/12/10 08:18:30;;;;;;;133.65;26.30;;;-0.40;99.90;;;;;;4861917;28;20096;-81
2020/12/10 08:20:53;;;;;;;139.40;27.15;;;-0.40;99.90;;;;;;4857758;28;20185;-82
2020/12/10 08:23:20;;;;;;;137.25;26.35;;;-0.40;99.90;;;;;;4859851;28;20099;-80
2020/12/10 08:25:45;;;;;;;143.30;26.45;;;-0.40;99.90;;;;;;4858087;28;20217;-80
2020/12/10 08:28:09;;;;;;;160.35;32.25;;;-0.40;99.90;;;;;;4854084;28;20151;-81
2020/12/10 08:30:33;;;;;;;154.75;30.90;;;-0.40;99.90;;;;;;4860633;28;20155;-82
2020/12/10 08:32:59;;;;;;;180.13;33.40;;;-0.40;99.90;;;;;;4861738;28;20094;-82
2020/12/10 08:35:24;;;;;;;153.90;28.15;;;-0.40;99.90;;;;;;4862243;28;20097;-82
2020/12/10 08:37:50;;;;;;;151.20;30.38;;;-0.40;99.90;;;;;;4855568;28;20102;-82
2020/12/10 08:40:13;;;;;;;;;;;-0.50;99.90;;;;;;4859200;28;20101;-81
2020/12/10 08:42:36;;;;;;;139.75;26.98;;;-0.50;99.90;;;;;;4861328;28;19988;-82
2020/12/10 08:44:59;;;;;;;154.82;28.40;;;-0.50;99.90;;;;;;4861718;28;20108;-82
2020/12/10 08:47:28;;;;;;;166.75;29.50;;;-0.50;99.90;;;;;;4858249;28;20096;-82
2020/12/10 08:50:06;;;;;;;154.98;26.95;;;-0.50;99.90;;;;;;4854206;28;20571;-82
2020/12/10 08:52:29;;;;;;;160.52;28.20;;;-0.50;99.90;;;;;;4865988;28;20092;-82
2020/12/10 08:54:52;;;;;;;144.50;27.17;;;-0.50;99.90;;;;;;4857068;28;20102;-83
2020/12/10 08:57:15;;;;;;;145.65;29.88;;;-0.50;99.90;;;;;;4854703;28;20108;-83
2020/12/10 08:59:39;;;;;;;160.10;31.08;;;-0.60;99.90;;;;;;4856313;28;20096;-83
2020/12/10 09:02:05;;;;;;;132.70;28.20;;;-0.60;99.90;;;;;;4815594;28;20439;-82
2020/12/10 09:04:29;;;;;;;143.57;28.27;;;-0.60;99.90;;;;;;4814584;28;20105;-83
2020/12/10 09:06:59;;;;;;;153.38;32.58;;;-0.70;99.90;;;;;;4809451;28;20096;-83
2020/12/10 09:09:54;;;;;;;147.13;31.15;;;-0.70;99.90;;;;;;4806373;28;20091;-82
2020/12/10 09:12:55;;;;;;;132.75;25.23;;;-0.70;99.90;;;;;;4813821;28;20103;-82
2020/12/10 09:15:32;;;;;;;137.05;25.58;;;-0.70;99.90;;;;;;4807157;28;20558;-83
2020/12/10 09:18:00;;;;;;;137.80;24.90;;;-0.60;99.90;;;;;;4809495;28;20104;-83
2020/12/10 09:20:42;;;;;;;131.18;24.60;;;-0.60;99.90;;;;;;4810494;28;20176;-82
2020/12/10 09:23:25;;;;;;;153.68;26.55;;;-0.60;99.90;;;;;;4810787;28;20108;-81
2020/12/10 09:25:48;;;;;;;131.00;26.38;;;-0.60;99.90;;;;;;4800171;28;20097;-83
2020/12/10 09:28:33;;;;;;;154.30;28.30;;;-0.70;99.90;;;;;;4813214;28;21123;-83
2020/12/10 09:31:14;;;;;;;148.85;26.25;;;-0.60;99.90;;;;;;4789246;28;20106;-83
2020/12/10 09:33:49;;;;;;;151.35;28.65;;;-0.70;99.90;;;;;;4797365;28;20196;-84
2020/12/10 09:36:17;;;;;;;144.38;25.67;;;-0.60;99.90;;;;;;4791448;28;20177;-82
2020/12/10 09:39:32;;;;;;;156.55;26.55;;;-0.60;99.90;;;;;;4804372;28;20535;-83
2020/12/10 09:41:57;;;;;;;151.77;27.20;;;-0.60;99.90;;;;;;4810428;28;20094;-82
2020/12/10 09:44:32;;;;;;;151.13;29.77;;;-0.60;99.90;;;;;;4815684;28;20569;-83
2020/12/10 09:47:16;;;;;;;142.10;28.45;;;-0.60;99.90;;;;;;4813010;28;20101;-82
2020/12/10 09:49:48;;;;;;;130.65;27.50;;;-0.60;99.90;;;;;;4788708;28;20223;-83
2020/12/10 09:52:19;;;;;;;157.90;28.73;;;-0.70;99.90;;;;;;4814202;28;20176;-81
2020/12/10 09:55:01;;;;;;;129.40;25.17;;;-0.60;99.90;;;;;;4805330;28;20118;-82
2020/12/10 09:58:01;;;;;;;120.20;25.60;;;-0.60;99.90;;;;;;4799629;28;20845;-83
2020/12/10 10:00:49;;;;;;;159.00;27.65;;;-0.60;99.90;;;;;;4807719;28;20092;-83
2020/12/10 10:03:12;;;;;;;147.70;26.90;;;-0.60;99.90;;;;;;4800141;28;20171;-82
2020/12/10 10:06:03;;;;;;;139.88;25.58;;;-0.60;99.90;;;;;;4809674;28;20692;-82
2020/12/10 10:08:32;;;;;;;146.15;28.17;;;-0.60;99.90;;;;;;4804673;28;20497;-82
2020/12/10 10:10:56;;;;;;;158.02;27.58;;;-0.50;99.90;;;;;;4809139;28;20096;-82
2020/12/10 10:13:20;;;;;;;164.02;29.50;;;-0.60;99.90;;;;;;4823840;28;20096;-82
2020/12/10 10:15:45;;;;;;;135.75;23.75;;;-0.60;99.90;;;;;;4830384;28;20095;-82
2020/12/10 10:18:09;;;;;;;145.45;25.42;;;-0.60;99.90;;;;;;4823903;28;20154;-83
2020/12/10 10:20:32;;;;;;;135.10;23.63;;;-0.50;99.90;;;;;;4834139;28;20093;-83
2020/12/10 10:23:09;;;;;;;134.00;24.48;;;-0.60;99.90;;;;;;4840221;28;20176;-83
2020/12/10 10:25:33;;;;;;;122.38;23.85;;;-0.60;99.90;;;;;;4848078;28;20101;-82
2020/12/10 10:28:01;;;;;;;128.10;23.85;;;-0.60;99.90;;;;;;4866487;28;20100;-83
2020/12/10 10:30:25;;;;;;;135.73;24.02;;;-0.60;99.90;;;;;;4859913;28;20100;-83
2020/12/10 10:32:48;;;;;;;111.10;23.92;;;-0.60;99.90;;;;;;4865558;28;20184;-82
2020/12/10 10:35:11;;;;;;;147.98;24.42;;;-0.60;99.90;;;;;;4857717;28;20119;-83
2020/12/10 10:37:35;;;;;;;117.28;23.10;;;-0.60;99.90;;;;;;4859651;28;20105;-82
2020/12/10 10:39:59;;;;;;;132.98;27.23;;;-0.60;99.90;;;;;;4863318;28;20093;-83
2020/12/10 10:42:23;;;;;;;127.70;24.92;;;-0.60;99.90;;;;;;4866030;28;20097;-82
2020/12/10 10:44:46;;;;;;;126.07;24.83;;;-0.60;99.90;;;;;;4839432;28;20669;-83
2020/12/10 10:47:09;;;;;;;122.95;23.65;;;-0.60;99.90;;;;;;4863609;28;20096;-83
2020/12/10 10:49:32;;;;;;;107.70;21.33;;;-0.60;99.90;;;;;;4859305;28;20096;-83
2020/12/10 10:51:56;;;;;;;141.07;25.23;;;-0.60;99.90;;;;;;4863829;28;20094;-83
2020/12/10 10:54:19;;;;;;;154.43;24.88;;;-0.70;99.90;;;;;;4862022;28;20176;-82
2020/12/10 10:56:42;;;;;;;137.93;28.23;;;-0.60;99.90;;;;;;4862660;28;20176;-83
2020/12/10 10:59:06;;;;;;;153.15;27.05;;;-0.60;99.90;;;;;;4865010;28;20098;-83
2020/12/10 11:01:30;;;;;;;134.30;25.27;;;-0.60;99.90;;;;;;4855689;28;20107;-82
2020/12/10 11:03:53;;;;;;;153.68;26.73;;;-0.50;99.90;;;;;;4863914;28;20098;-82
2020/12/10 11:06:16;;;;;;;144.05;25.05;;;-0.50;99.90;;;;;;4864300;28;20176;-83
2020/12/10 11:08:39;;;;;;;167.23;26.95;;;-0.50;99.90;;;;;;4862737;28;20092;-82
2020/12/10 11:11:03;;;;;;;140.45;28.27;;;-0.50;99.90;;;;;;4852211;28;20148;-83
2020/12/10 11:13:26;;;;;;;157.52;26.95;;;-0.50;99.90;;;;;;4878720;28;20089;-82
2020/12/10 11:15:50;;;;;;;144.25;25.80;;;;;;;;;;4866164;28;20485;-82
2020/12/10 11:18:13;;;;;;;143.55;25.42;;;-0.50;99.90;;;;;;4858681;28;20193;-83
2020/12/10 11:20:36;;;;;;;120.72;23.30;;;-0.50;99.90;;;;;;4867210;28;20088;-82
2020/12/10 11:22:59;;;;;;;145.77;26.55;;;-0.50;99.90;;;;;;4857807;28;20707;-83
2020/12/10 11:25:22;;;;;;;136.93;25.10;;;-0.50;99.90;;;;;;4853566;28;20097;-82
2020/12/10 11:27:45;;;;;;;160.07;29.73;;;-0.50;99.90;;;;;;4861119;28;20101;-82
2020/12/10 11:30:08;;;;;;;153.38;27.25;;;-0.50;99.90;;;;;;4859708;28;20127;-82
2020/12/10 11:32:33;;;;;;;147.55;25.17;;;-0.50;99.90;;;;;;4857588;28;20090;-83
2020/12/10 11:34:56;;;;;;;136.80;26.67;;;-0.50;99.90;;;;;;4858099;28;20105;-82
2020/12/10 11:37:20;;;;;;;146.57;24.70;;;-0.50;99.90;;;;;;4858527;28;20151;-83
2020/12/10 11:39:43;;;;;;;129.73;25.95;;;-0.50;99.90;;;;;;4860583;28;20098;-82
2020/12/10 11:42:06;;;;;;;133.98;25.13;;;-0.50;99.90;;;;;;4857250;28;20139;-82
2020/12/10 11:44:29;;;;;;;121.18;24.00;;;-0.50;99.90;;;;;;4869649;28;20217;-82
2020/12/10 11:46:52;;;;;;;131.50;22.85;;;-0.50;99.90;;;;;;4855531;28;20135;-82
2020/12/10 11:49:17;;;;;;;107.68;21.95;;;;;;;;;;4847217;28;20562;-82
2020/12/10 11:51:40;;;;;;;109.40;21.25;;;-0.60;99.90;;;;;;4860824;28;20107;-83
2020/12/10 11:54:03;;;;;;;100.82;18.35;;;-0.60;99.90;;;;;;4862176;28;20110;-83
2020/12/10 11:56:27;;;;;;;122.85;23.63;;;-0.70;99.90;;;;;;4856888;28;20144;-81
2020/12/10 11:58:50;;;;;;;118.28;22.98;;;-0.60;99.90;;;;;;4855806;28;20097;-82
2020/12/10 12:01:13;;;;;;;107.55;22.60;;;-0.60;99.90;;;;;;4859732;28;20102;-81
2020/12/10 12:03:36;;;;;;;114.78;21.25;;;-0.50;99.90;;;;;;4862055;28;20093;-82
2020/12/10 12:06:00;;;;;;;129.18;23.90;;;;;;;;;;4862044;28;20535;-82
2020/12/10 12:08:25;;;;;;;92.40;20.48;;;-0.50;99.90;;;;;;4864098;28;20088;-81
2020/12/10 12:10:49;;;;;;;116.55;23.25;;;-0.50;99.90;;;;;;4854730;28;20087;-82
2020/12/10 12:13:12;;;;;;;153.82;29.25;;;-0.50;99.90;;;;;;4859003;28;20087;-82
2020/12/10 12:15:35;;;;;;;116.40;22.48;;;-0.50;99.90;;;;;;4862917;28;20530;-80
2020/12/10 12:17:58;;;;;;;124.97;24.40;;;-0.50;99.90;;;;;;4859577;28;20576;-82
2020/12/10 12:20:24;;;;;;;138.18;25.10;;;-0.50;99.90;;;;;;4861112;28;20112;-83